sensor_id;sensor_type;location;lat;lon;timestamp;P1;durP1;ratioP1;P2;durP2;ratioP2
22935;SDS011;11633;42.716;23.312;2022-07-22T00:00:57;2.47;;;1.75;;
22935;SDS011;11633;42.716;23.312;2022-07-22T00:03:22;2.03;;;1.85;;
22935;SDS011;11633;42.716;23.312;2022-07-22T00:05:47;2.20;;;2.10;;
22935;SDS011;11633;42.716;23.312;2022-07-22T00:08:13;2.28;;;2.03;;
22935;SDS011;11633;42.716;23.312;2022-07-22T00:10:38;3.25;;;2.22;;
22935;SDS011;11633;42.716;23.312;2022-07-22T00:13:03;3.13;;;2.00;;
22935;SDS011;11633;42.716;23.312;2022-07-22T00:15:28;3.10;;;2.05;;
22935;SDS011;11633;42.716;23.312;2022-07-22T00:17:54;1.92;;;1.70;;
22935;SDS011;11633;42.716;23.312;2022-07-22T00:20:19;1.77;;;1.65;;
22935;SDS011;11633;42.716;23.312;2022-07-22T00:22:44;2.08;;;1.88;;
22935;SDS011;11633;42.716;23.312;2022-07-22T00:25:10;3.35;;;2.10;;
22935;SDS011;11633;42.716;23.312;2022-07-22T00:27:35;3.92;;;2.65;;
22935;SDS011;11633;42.716;23.312;2022-07-22T00:30:00;2.58;;;2.10;;
22935;SDS011;11633;42.716;23.312;2022-07-22T00:32:25;1.77;;;1.50;;
22935;SDS011;11633;42.716;23.312;2022-07-22T00:34:51;2.35;;;1.70;;
22935;SDS011;11633;42.716;23.312;2022-07-22T00:37:16;3.03;;;2.03;;
22935;SDS011;11633;42.716;23.312;2022-07-22T00:39:41;2.63;;;1.83;;
22935;SDS011;11633;42.716;23.312;2022-07-22T00:42:06;2.33;;;1.77;;
22935;SDS011;11633;42.716;23.312;2022-07-22T00:44:32;2.33;;;1.83;;
22935;SDS011;11633;42.716;23.312;2022-07-22T00:46:57;2.33;;;2.13;;
22935;SDS011;11633;42.716;23.312;2022-07-22T00:49:22;2.30;;;2.10;;
22935;SDS011;11633;42.716;23.312;2022-07-22T00:51:47;2.78;;;2.10;;
22935;SDS011;11633;42.716;23.312;2022-07-22T00:54:13;3.28;;;1.90;;
22935;SDS011;11633;42.716;23.312;2022-07-22T00:56:38;2.50;;;2.20;;
22935;SDS011;11633;42.716;23.312;2022-07-22T00:59:05;2.28;;;2.08;;
22935;SDS011;11633;42.716;23.312;2022-07-22T01:01:30;1.90;;;1.70;;
22935;SDS011;11633;42.716;23.312;2022-07-22T01:03:55;1.65;;;1.55;;
22935;SDS011;11633;42.716;23.312;2022-07-22T01:06:21;2.20;;;2.00;;
22935;SDS011;11633;42.716;23.312;2022-07-22T01:08:46;3.03;;;1.95;;
22935;SDS011;11633;42.716;23.312;2022-07-22T01:11:12;2.38;;;1.95;;
22935;SDS011;11633;42.716;23.312;2022-07-22T01:13:38;2.78;;;1.95;;
22935;SDS011;11633;42.716;23.312;2022-07-22T01:16:04;5.25;;;1.90;;
22935;SDS011;11633;42.716;23.312;2022-07-22T01:18:30;2.30;;;2.05;;
22935;SDS011;11633;42.716;23.312;2022-07-22T01:20:55;3.15;;;1.90;;
22935;SDS011;11633;42.716;23.312;2022-07-22T01:23:21;2.28;;;1.65;;
22935;SDS011;11633;42.716;23.312;2022-07-22T01:25:46;3.65;;;1.85;;
22935;SDS011;11633;42.716;23.312;2022-07-22T01:28:11;2.50;;;2.00;;
22935;SDS011;11633;42.716;23.312;2022-07-22T01:30:37;2.70;;;1.75;;
22935;SDS011;11633;42.716;23.312;2022-07-22T01:33:02;2.13;;;1.63;;
22935;SDS011;11633;42.716;23.312;2022-07-22T01:35:27;2.75;;;2.10;;
22935;SDS011;11633;42.716;23.312;2022-07-22T01:37:53;2.33;;;1.90;;
22935;SDS011;11633;42.716;23.312;2022-07-22T01:40:18;2.90;;;2.08;;
22935;SDS011;11633;42.716;23.312;2022-07-22T01:42:43;2.75;;;1.75;;
22935;SDS011;11633;42.716;23.312;2022-07-22T01:45:09;2.53;;;1.90;;
22935;SDS011;11633;42.716;23.312;2022-07-22T01:47:34;2.03;;;1.80;;
22935;SDS011;11633;42.716;23.312;2022-07-22T01:49:59;3.10;;;1.88;;
22935;SDS011;11633;42.716;23.312;2022-07-22T01:52:25;2.88;;;2.05;;
22935;SDS011;11633;42.716;23.312;2022-07-22T01:54:50;3.08;;;1.98;;
22935;SDS011;11633;42.716;23.312;2022-07-22T01:57:15;3.85;;;2.33;;
22935;SDS011;11633;42.716;23.312;2022-07-22T01:59:40;1.92;;;1.77;;
22935;SDS011;11633;42.716;23.312;2022-07-22T02:02:05;3.38;;;2.13;;
22935;SDS011;11633;42.716;23.312;2022-07-22T02:04:31;3.30;;;2.13;;
22935;SDS011;11633;42.716;23.312;2022-07-22T02:06:56;2.63;;;1.63;;
22935;SDS011;11633;42.716;23.312;2022-07-22T02:09:21;3.00;;;1.90;;
22935;SDS011;11633;42.716;23.312;2022-07-22T02:11:47;2.53;;;1.85;;
22935;SDS011;11633;42.716;23.312;2022-07-22T02:14:12;2.88;;;2.35;;
22935;SDS011;11633;42.716;23.312;2022-07-22T02:16:37;2.08;;;1.55;;
22935;SDS011;11633;42.716;23.312;2022-07-22T02:19:02;2.22;;;1.85;;
22935;SDS011;11633;42.716;23.312;2022-07-22T02:21:28;2.53;;;1.80;;
22935;SDS011;11633;42.716;23.312;2022-07-22T02:23:53;2.22;;;1.92;;
22935;SDS011;11633;42.716;23.312;2022-07-22T02:26:18;3.78;;;2.05;;
22935;SDS011;11633;42.716;23.312;2022-07-22T02:28:44;2.65;;;2.25;;
22935;SDS011;11633;42.716;23.312;2022-07-22T02:31:09;3.47;;;2.40;;
22935;SDS011;11633;42.716;23.312;2022-07-22T02:33:34;3.35;;;2.30;;
22935;SDS011;11633;42.716;23.312;2022-07-22T02:36:00;2.75;;;2.17;;
22935;SDS011;11633;42.716;23.312;2022-07-22T02:38:25;2.97;;;1.73;;
22935;SDS011;11633;42.716;23.312;2022-07-22T02:40:50;4.53;;;2.60;;
22935;SDS011;11633;42.716;23.312;2022-07-22T02:43:15;2.75;;;1.90;;
22935;SDS011;11633;42.716;23.312;2022-07-22T02:45:41;3.10;;;2.42;;
22935;SDS011;11633;42.716;23.312;2022-07-22T02:48:06;4.22;;;2.53;;
22935;SDS011;11633;42.716;23.312;2022-07-22T02:50:31;3.60;;;2.70;;
22935;SDS011;11633;42.716;23.312;2022-07-22T02:52:58;4.50;;;2.50;;
22935;SDS011;11633;42.716;23.312;2022-07-22T02:55:23;3.20;;;2.90;;
22935;SDS011;11633;42.716;23.312;2022-07-22T02:57:48;2.78;;;2.28;;
22935;SDS011;11633;42.716;23.312;2022-07-22T03:00:14;4.40;;;2.85;;
22935;SDS011;11633;42.716;23.312;2022-07-22T03:02:39;2.50;;;2.22;;
22935;SDS011;11633;42.716;23.312;2022-07-22T03:05:08;3.13;;;2.65;;
22935;SDS011;11633;42.716;23.312;2022-07-22T03:07:33;3.17;;;2.88;;
22935;SDS011;11633;42.716;23.312;2022-07-22T03:09:59;4.60;;;2.78;;
22935;SDS011;11633;42.716;23.312;2022-07-22T03:12:24;3.20;;;2.70;;
22935;SDS011;11633;42.716;23.312;2022-07-22T03:14:49;3.58;;;2.55;;
22935;SDS011;11633;42.716;23.312;2022-07-22T03:17:14;2.63;;;2.17;;
22935;SDS011;11633;42.716;23.312;2022-07-22T03:19:40;4.20;;;2.97;;
22935;SDS011;11633;42.716;23.312;2022-07-22T03:22:05;2.60;;;2.40;;
22935;SDS011;11633;42.716;23.312;2022-07-22T03:24:31;3.97;;;2.83;;
22935;SDS011;11633;42.716;23.312;2022-07-22T03:26:56;4.35;;;2.70;;
22935;SDS011;11633;42.716;23.312;2022-07-22T03:29:21;3.08;;;2.53;;
22935;SDS011;11633;42.716;23.312;2022-07-22T03:31:47;8.65;;;7.85;;
22935;SDS011;11633;42.716;23.312;2022-07-22T03:34:12;5.70;;;5.10;;
22935;SDS011;11633;42.716;23.312;2022-07-22T03:36:37;4.80;;;4.25;;
22935;SDS011;11633;42.716;23.312;2022-07-22T03:39:03;4.82;;;2.65;;
22935;SDS011;11633;42.716;23.312;2022-07-22T03:41:28;4.13;;;2.38;;
22935;SDS011;11633;42.716;23.312;2022-07-22T03:43:53;3.97;;;2.97;;
22935;SDS011;11633;42.716;23.312;2022-07-22T03:46:18;2.97;;;2.45;;
22935;SDS011;11633;42.716;23.312;2022-07-22T03:48:44;3.90;;;2.53;;
22935;SDS011;11633;42.716;23.312;2022-07-22T03:51:09;3.08;;;2.55;;
22935;SDS011;11633;42.716;23.312;2022-07-22T03:53:34;2.58;;;2.30;;
22935;SDS011;11633;42.716;23.312;2022-07-22T03:56:00;2.88;;;2.20;;
22935;SDS011;11633;42.716;23.312;2022-07-22T03:58:25;3.30;;;2.42;;
22935;SDS011;11633;42.716;23.312;2022-07-22T04:00:52;4.55;;;2.97;;
22935;SDS011;11633;42.716;23.312;2022-07-22T04:03:17;2.58;;;2.15;;
22935;SDS011;11633;42.716;23.312;2022-07-22T04:05:42;2.75;;;2.17;;
22935;SDS011;11633;42.716;23.312;2022-07-22T04:08:07;3.50;;;2.88;;
22935;SDS011;11633;42.716;23.312;2022-07-22T04:10:33;2.53;;;2.00;;
22935;SDS011;11633;42.716;23.312;2022-07-22T04:12:58;2.97;;;2.47;;
22935;SDS011;11633;42.716;23.312;2022-07-22T04:15:23;2.60;;;2.33;;
22935;SDS011;11633;42.716;23.312;2022-07-22T04:17:48;3.30;;;2.67;;
22935;SDS011;11633;42.716;23.312;2022-07-22T04:20:14;2.60;;;2.17;;
22935;SDS011;11633;42.716;23.312;2022-07-22T04:22:39;4.18;;;2.58;;
22935;SDS011;11633;42.716;23.312;2022-07-22T04:25:04;3.28;;;2.95;;
22935;SDS011;11633;42.716;23.312;2022-07-22T04:27:30;4.90;;;4.10;;
22935;SDS011;11633;42.716;23.312;2022-07-22T04:29:55;4.50;;;3.77;;
22935;SDS011;11633;42.716;23.312;2022-07-22T04:32:21;3.47;;;3.00;;
22935;SDS011;11633;42.716;23.312;2022-07-22T04:34:46;3.33;;;3.03;;
22935;SDS011;11633;42.716;23.312;2022-07-22T04:37:11;2.85;;;2.50;;
22935;SDS011;11633;42.716;23.312;2022-07-22T04:39:37;2.97;;;2.45;;
22935;SDS011;11633;42.716;23.312;2022-07-22T04:42:02;3.20;;;2.63;;
22935;SDS011;11633;42.716;23.312;2022-07-22T04:44:27;2.70;;;2.50;;
22935;SDS011;11633;42.716;23.312;2022-07-22T04:46:53;3.00;;;2.70;;
22935;SDS011;11633;42.716;23.312;2022-07-22T04:49:18;2.95;;;2.55;;
22935;SDS011;11633;42.716;23.312;2022-07-22T04:51:43;3.15;;;2.60;;
22935;SDS011;11633;42.716;23.312;2022-07-22T04:54:09;3.13;;;2.58;;
22935;SDS011;11633;42.716;23.312;2022-07-22T04:56:34;2.58;;;2.38;;
22935;SDS011;11633;42.716;23.312;2022-07-22T04:58:59;3.88;;;2.58;;
22935;SDS011;11633;42.716;23.312;2022-07-22T05:01:24;2.57;;;2.20;;
22935;SDS011;11633;42.716;23.312;2022-07-22T05:03:50;4.63;;;3.03;;
22935;SDS011;11633;42.716;23.312;2022-07-22T05:06:16;2.45;;;2.25;;
22935;SDS011;11633;42.716;23.312;2022-07-22T05:08:42;4.90;;;2.67;;
22935;SDS011;11633;42.716;23.312;2022-07-22T05:11:07;2.70;;;2.50;;
22935;SDS011;11633;42.716;23.312;2022-07-22T05:13:32;3.33;;;2.92;;
22935;SDS011;11633;42.716;23.312;2022-07-22T05:16:01;2.50;;;2.30;;
22935;SDS011;11633;42.716;23.312;2022-07-22T05:18:27;3.75;;;2.63;;
22935;SDS011;11633;42.716;23.312;2022-07-22T05:20:52;3.58;;;2.90;;
22935;SDS011;11633;42.716;23.312;2022-07-22T05:23:17;3.10;;;2.80;;
22935;SDS011;11633;42.716;23.312;2022-07-22T05:25:43;2.92;;;2.55;;
22935;SDS011;11633;42.716;23.312;2022-07-22T05:28:08;2.50;;;2.30;;
22935;SDS011;11633;42.716;23.312;2022-07-22T05:30:33;2.70;;;2.50;;
22935;SDS011;11633;42.716;23.312;2022-07-22T05:32:58;4.30;;;2.47;;
22935;SDS011;11633;42.716;23.312;2022-07-22T05:35:24;3.23;;;2.73;;
22935;SDS011;11633;42.716;23.312;2022-07-22T05:37:49;3.65;;;2.35;;
22935;SDS011;11633;42.716;23.312;2022-07-22T05:40:14;4.22;;;2.70;;
22935;SDS011;11633;42.716;23.312;2022-07-22T05:42:40;2.90;;;2.55;;
22935;SDS011;11633;42.716;23.312;2022-07-22T05:45:05;2.72;;;2.53;;
22935;SDS011;11633;42.716;23.312;2022-07-22T05:47:30;5.35;;;3.00;;
22935;SDS011;11633;42.716;23.312;2022-07-22T05:49:56;4.77;;;4.07;;
22935;SDS011;11633;42.716;23.312;2022-07-22T05:52:21;3.65;;;2.60;;
22935;SDS011;11633;42.716;23.312;2022-07-22T05:54:47;4.60;;;3.58;;
22935;SDS011;11633;42.716;23.312;2022-07-22T05:57:12;9.65;;;2.95;;
22935;SDS011;11633;42.716;23.312;2022-07-22T05:59:37;3.15;;;2.88;;
22935;SDS011;11633;42.716;23.312;2022-07-22T06:02:03;3.20;;;2.83;;
22935;SDS011;11633;42.716;23.312;2022-07-22T06:04:28;5.00;;;2.60;;
22935;SDS011;11633;42.716;23.312;2022-07-22T06:06:53;2.93;;;2.37;;
22935;SDS011;11633;42.716;23.312;2022-07-22T06:09:22;2.60;;;2.40;;
22935;SDS011;11633;42.716;23.312;2022-07-22T06:11:47;2.97;;;2.70;;
22935;SDS011;11633;42.716;23.312;2022-07-22T06:14:12;4.28;;;3.95;;
22935;SDS011;11633;42.716;23.312;2022-07-22T06:16:38;4.57;;;4.15;;
22935;SDS011;11633;42.716;23.312;2022-07-22T06:19:03;3.37;;;2.93;;
22935;SDS011;11633;42.716;23.312;2022-07-22T06:21:28;4.87;;;3.33;;
22935;SDS011;11633;42.716;23.312;2022-07-22T06:23:53;3.80;;;3.47;;
22935;SDS011;11633;42.716;23.312;2022-07-22T06:26:19;3.03;;;2.60;;
22935;SDS011;11633;42.716;23.312;2022-07-22T06:28:44;3.50;;;3.20;;
22935;SDS011;11633;42.716;23.312;2022-07-22T06:31:09;4.07;;;3.65;;
22935;SDS011;11633;42.716;23.312;2022-07-22T06:33:35;4.45;;;4.05;;
22935;SDS011;11633;42.716;23.312;2022-07-22T06:36:00;3.03;;;2.83;;
22935;SDS011;11633;42.716;23.312;2022-07-22T06:38:25;3.40;;;3.10;;
22935;SDS011;11633;42.716;23.312;2022-07-22T06:40:50;2.45;;;2.25;;
22935;SDS011;11633;42.716;23.312;2022-07-22T06:43:16;2.65;;;2.45;;
22935;SDS011;11633;42.716;23.312;2022-07-22T06:45:41;3.47;;;3.13;;
22935;SDS011;11633;42.716;23.312;2022-07-22T06:48:06;2.97;;;2.67;;
22935;SDS011;11633;42.716;23.312;2022-07-22T06:50:32;3.08;;;2.45;;
22935;SDS011;11633;42.716;23.312;2022-07-22T06:52:57;2.78;;;2.58;;
22935;SDS011;11633;42.716;23.312;2022-07-22T06:55:22;3.03;;;2.73;;
22935;SDS011;11633;42.716;23.312;2022-07-22T06:57:48;5.30;;;3.25;;
22935;SDS011;11633;42.716;23.312;2022-07-22T07:00:13;2.33;;;2.08;;
22935;SDS011;11633;42.716;23.312;2022-07-22T07:02:38;2.63;;;2.42;;
22935;SDS011;11633;42.716;23.312;2022-07-22T07:05:04;3.10;;;2.83;;
22935;SDS011;11633;42.716;23.312;2022-07-22T07:07:29;4.93;;;2.33;;
22935;SDS011;11633;42.716;23.312;2022-07-22T07:09:55;3.38;;;2.70;;
22935;SDS011;11633;42.716;23.312;2022-07-22T07:12:20;2.45;;;2.22;;
22935;SDS011;11633;42.716;23.312;2022-07-22T07:14:45;2.37;;;2.17;;
22935;SDS011;11633;42.716;23.312;2022-07-22T07:17:11;4.63;;;4.22;;
22935;SDS011;11633;42.716;23.312;2022-07-22T07:19:36;2.90;;;2.60;;
22935;SDS011;11633;42.716;23.312;2022-07-22T07:22:01;2.38;;;1.90;;
22935;SDS011;11633;42.716;23.312;2022-07-22T07:24:27;2.20;;;2.10;;
22935;SDS011;11633;42.716;23.312;2022-07-22T07:26:52;2.53;;;2.33;;
22935;SDS011;11633;42.716;23.312;2022-07-22T07:29:17;2.87;;;2.67;;
22935;SDS011;11633;42.716;23.312;2022-07-22T07:31:42;2.60;;;2.40;;
22935;SDS011;11633;42.716;23.312;2022-07-22T07:34:08;2.10;;;1.90;;
22935;SDS011;11633;42.716;23.312;2022-07-22T07:36:33;2.40;;;2.00;;
22935;SDS011;11633;42.716;23.312;2022-07-22T07:38:58;2.47;;;2.28;;
22935;SDS011;11633;42.716;23.312;2022-07-22T07:41:23;2.27;;;2.07;;
22935;SDS011;11633;42.716;23.312;2022-07-22T07:43:49;3.05;;;2.85;;
22935;SDS011;11633;42.716;23.312;2022-07-22T07:46:14;2.67;;;2.20;;
22935;SDS011;11633;42.716;23.312;2022-07-22T07:48:39;2.80;;;2.55;;
22935;SDS011;11633;42.716;23.312;2022-07-22T07:51:04;3.63;;;2.90;;
22935;SDS011;11633;42.716;23.312;2022-07-22T07:53:30;3.97;;;2.95;;
22935;SDS011;11633;42.716;23.312;2022-07-22T07:55:55;2.85;;;2.65;;
22935;SDS011;11633;42.716;23.312;2022-07-22T07:58:21;3.90;;;2.95;;
22935;SDS011;11633;42.716;23.312;2022-07-22T08:00:46;3.67;;;2.35;;
22935;SDS011;11633;42.716;23.312;2022-07-22T08:03:12;1.52;;;1.42;;
22935;SDS011;11633;42.716;23.312;2022-07-22T08:05:37;2.70;;;2.50;;
22935;SDS011;11633;42.716;23.312;2022-07-22T08:08:04;4.28;;;2.22;;
22935;SDS011;11633;42.716;23.312;2022-07-22T08:10:29;2.88;;;1.88;;
22935;SDS011;11633;42.716;23.312;2022-07-22T08:12:54;2.35;;;2.15;;
22935;SDS011;11633;42.716;23.312;2022-07-22T08:15:22;2.30;;;2.10;;
22935;SDS011;11633;42.716;23.312;2022-07-22T08:17:48;2.38;;;2.10;;
22935;SDS011;11633;42.716;23.312;2022-07-22T08:20:13;1.98;;;1.88;;
22935;SDS011;11633;42.716;23.312;2022-07-22T08:22:38;1.70;;;1.60;;
22935;SDS011;11633;42.716;23.312;2022-07-22T08:25:04;2.63;;;1.77;;
22935;SDS011;11633;42.716;23.312;2022-07-22T08:27:29;2.75;;;1.63;;
22935;SDS011;11633;42.716;23.312;2022-07-22T08:29:54;4.03;;;1.75;;
22935;SDS011;11633;42.716;23.312;2022-07-22T08:32:20;1.40;;;1.30;;
22935;SDS011;11633;42.716;23.312;2022-07-22T08:34:46;3.05;;;2.00;;
22935;SDS011;11633;42.716;23.312;2022-07-22T08:37:11;2.13;;;1.83;;
22935;SDS011;11633;42.716;23.312;2022-07-22T08:39:37;2.10;;;1.90;;
22935;SDS011;11633;42.716;23.312;2022-07-22T08:42:02;1.95;;;1.73;;
22935;SDS011;11633;42.716;23.312;2022-07-22T08:44:31;1.60;;;1.50;;
22935;SDS011;11633;42.716;23.312;2022-07-22T08:46:58;2.30;;;1.48;;
22935;SDS011;11633;42.716;23.312;2022-07-22T08:49:23;3.45;;;1.60;;
22935;SDS011;11633;42.716;23.312;2022-07-22T08:51:48;1.60;;;1.40;;
22935;SDS011;11633;42.716;23.312;2022-07-22T08:54:13;2.67;;;1.52;;
22935;SDS011;11633;42.716;23.312;2022-07-22T08:56:39;2.80;;;1.90;;
22935;SDS011;11633;42.716;23.312;2022-07-22T08:59:04;3.05;;;2.75;;
22935;SDS011;11633;42.716;23.312;2022-07-22T09:01:30;1.70;;;1.50;;
22935;SDS011;11633;42.716;23.312;2022-07-22T09:03:56;1.75;;;1.65;;
22935;SDS011;11633;42.716;23.312;2022-07-22T09:06:25;1.92;;;1.73;;
22935;SDS011;11633;42.716;23.312;2022-07-22T09:08:52;2.03;;;1.92;;
22935;SDS011;11633;42.716;23.312;2022-07-22T09:11:18;1.73;;;1.63;;
22935;SDS011;11633;42.716;23.312;2022-07-22T09:13:45;1.77;;;1.67;;
22935;SDS011;11633;42.716;23.312;2022-07-22T09:16:10;1.67;;;1.40;;
22935;SDS011;11633;42.716;23.312;2022-07-22T09:18:49;3.47;;;1.95;;
22935;SDS011;11633;42.716;23.312;2022-07-22T09:21:14;2.05;;;1.85;;
22935;SDS011;11633;42.716;23.312;2022-07-22T09:23:40;1.83;;;1.45;;
22935;SDS011;11633;42.716;23.312;2022-07-22T09:26:06;2.00;;;1.80;;
22935;SDS011;11633;42.716;23.312;2022-07-22T09:28:31;2.58;;;1.63;;
22935;SDS011;11633;42.716;23.312;2022-07-22T09:30:57;2.28;;;2.00;;
22935;SDS011;11633;42.716;23.312;2022-07-22T09:33:22;1.30;;;1.20;;
22935;SDS011;11633;42.716;23.312;2022-07-22T09:35:48;2.88;;;1.92;;
22935;SDS011;11633;42.716;23.312;2022-07-22T09:38:14;2.55;;;1.88;;
22935;SDS011;11633;42.716;23.312;2022-07-22T09:40:44;1.73;;;1.55;;
22935;SDS011;11633;42.716;23.312;2022-07-22T09:43:11;1.80;;;1.70;;
22935;SDS011;11633;42.716;23.312;2022-07-22T09:45:44;1.77;;;1.50;;
22935;SDS011;11633;42.716;23.312;2022-07-22T09:48:09;2.83;;;1.98;;
22935;SDS011;11633;42.716;23.312;2022-07-22T09:50:34;4.05;;;1.95;;
22935;SDS011;11633;42.716;23.312;2022-07-22T09:53:00;3.22;;;1.70;;
22935;SDS011;11633;42.716;23.312;2022-07-22T09:55:26;1.65;;;1.55;;
22935;SDS011;11633;42.716;23.312;2022-07-22T09:57:52;2.03;;;1.50;;
22935;SDS011;11633;42.716;23.312;2022-07-22T10:00:22;2.60;;;1.85;;
22935;SDS011;11633;42.716;23.312;2022-07-22T10:02:54;1.80;;;1.70;;
22935;SDS011;11633;42.716;23.312;2022-07-22T10:05:21;1.70;;;1.60;;
22935;SDS011;11633;42.716;23.312;2022-07-22T10:07:47;2.72;;;1.80;;
22935;SDS011;11633;42.716;23.312;2022-07-22T10:10:14;3.85;;;2.70;;
22935;SDS011;11633;42.716;23.312;2022-07-22T10:12:40;1.80;;;1.70;;
22935;SDS011;11633;42.716;23.312;2022-07-22T10:15:06;2.03;;;1.83;;
22935;SDS011;11633;42.716;23.312;2022-07-22T10:17:32;1.88;;;1.70;;
22935;SDS011;11633;42.716;23.312;2022-07-22T10:19:58;1.70;;;1.60;;
22935;SDS011;11633;42.716;23.312;2022-07-22T10:25:18;1.60;;;1.50;;
22935;SDS011;11633;42.716;23.312;2022-07-22T10:27:49;1.80;;;1.63;;
22935;SDS011;11633;42.716;23.312;2022-07-22T10:30:15;1.83;;;1.65;;
22935;SDS011;11633;42.716;23.312;2022-07-22T10:32:41;2.25;;;1.85;;
22935;SDS011;11633;42.716;23.312;2022-07-22T10:45:24;2.67;;;2.08;;
22935;SDS011;11633;42.716;23.312;2022-07-22T10:47:53;2.13;;;1.80;;
22935;SDS011;11633;42.716;23.312;2022-07-22T10:52:55;1.50;;;1.40;;
22935;SDS011;11633;42.716;23.312;2022-07-22T10:55:21;1.20;;;1.20;;
22935;SDS011;11633;42.716;23.312;2022-07-22T10:57:47;2.10;;;1.58;;
22935;SDS011;11633;42.716;23.312;2022-07-22T11:00:13;1.88;;;1.60;;
22935;SDS011;11633;42.716;23.312;2022-07-22T11:02:39;1.85;;;1.63;;
22935;SDS011;11633;42.716;23.312;2022-07-22T11:05:04;4.72;;;2.15;;
22935;SDS011;11633;42.716;23.312;2022-07-22T11:07:30;1.70;;;1.60;;
22935;SDS011;11633;42.716;23.312;2022-07-22T11:10:12;2.05;;;1.70;;
22935;SDS011;11633;42.716;23.312;2022-07-22T11:12:38;1.80;;;1.70;;
22935;SDS011;11633;42.716;23.312;2022-07-22T11:15:03;2.03;;;1.85;;
22935;SDS011;11633;42.716;23.312;2022-07-22T11:17:31;1.65;;;1.50;;
22935;SDS011;11633;42.716;23.312;2022-07-22T11:19:59;4.15;;;1.80;;
22935;SDS011;11633;42.716;23.312;2022-07-22T11:22:25;2.25;;;1.73;;
22935;SDS011;11633;42.716;23.312;2022-07-22T11:24:50;2.33;;;2.00;;
22935;SDS011;11633;42.716;23.312;2022-07-22T11:27:16;2.53;;;2.28;;
22935;SDS011;11633;42.716;23.312;2022-07-22T11:29:42;2.42;;;1.98;;
22935;SDS011;11633;42.716;23.312;2022-07-22T11:32:11;2.28;;;1.63;;
22935;SDS011;11633;42.716;23.312;2022-07-22T11:34:38;1.75;;;1.60;;
22935;SDS011;11633;42.716;23.312;2022-07-22T11:37:03;1.75;;;1.65;;
22935;SDS011;11633;42.716;23.312;2022-07-22T11:39:29;2.87;;;2.27;;
22935;SDS011;11633;42.716;23.312;2022-07-22T11:41:56;2.60;;;2.15;;
22935;SDS011;11633;42.716;23.312;2022-07-22T11:44:22;1.80;;;1.70;;
22935;SDS011;11633;42.716;23.312;2022-07-22T11:46:48;1.98;;;1.77;;
22935;SDS011;11633;42.716;23.312;2022-07-22T11:49:14;1.95;;;1.73;;
22935;SDS011;11633;42.716;23.312;2022-07-22T11:51:40;1.95;;;1.65;;
22935;SDS011;11633;42.716;23.312;2022-07-22T11:54:06;2.07;;;1.80;;
22935;SDS011;11633;42.716;23.312;2022-07-22T11:56:31;2.15;;;1.90;;
22935;SDS011;11633;42.716;23.312;2022-07-22T11:58:57;1.80;;;1.70;;
22935;SDS011;11633;42.716;23.312;2022-07-22T12:01:26;1.70;;;1.58;;
22935;SDS011;11633;42.716;23.312;2022-07-22T12:03:53;2.40;;;2.20;;
22935;SDS011;11633;42.716;23.312;2022-07-22T12:06:19;2.22;;;1.83;;
22935;SDS011;11633;42.716;23.312;2022-07-22T12:08:46;2.60;;;1.58;;
22935;SDS011;11633;42.716;23.312;2022-07-22T12:11:13;1.60;;;1.48;;
22935;SDS011;11633;42.716;23.312;2022-07-22T12:13:42;2.20;;;1.85;;
22935;SDS011;11633;42.716;23.312;2022-07-22T12:18:42;2.28;;;1.88;;
22935;SDS011;11633;42.716;23.312;2022-07-22T12:21:08;2.85;;;1.50;;
22935;SDS011;11633;42.716;23.312;2022-07-22T12:23:33;2.35;;;1.73;;
22935;SDS011;11633;42.716;23.312;2022-07-22T12:25:59;2.17;;;1.60;;
22935;SDS011;11633;42.716;23.312;2022-07-22T12:28:25;1.90;;;1.77;;
22935;SDS011;11633;42.716;23.312;2022-07-22T12:30:51;2.10;;;1.90;;
22935;SDS011;11633;42.716;23.312;2022-07-22T12:33:17;1.98;;;1.67;;
22935;SDS011;11633;42.716;23.312;2022-07-22T12:35:43;1.83;;;1.73;;
22935;SDS011;11633;42.716;23.312;2022-07-22T12:38:09;1.60;;;1.50;;
22935;SDS011;11633;42.716;23.312;2022-07-22T12:40:35;1.83;;;1.58;;
22935;SDS011;11633;42.716;23.312;2022-07-22T12:43:01;1.83;;;1.73;;
22935;SDS011;11633;42.716;23.312;2022-07-22T12:45:28;1.60;;;1.50;;
22935;SDS011;11633;42.716;23.312;2022-07-22T12:47:54;3.92;;;2.10;;
22935;SDS011;11633;42.716;23.312;2022-07-22T12:52:59;2.00;;;1.70;;
22935;SDS011;11633;42.716;23.312;2022-07-22T12:55:25;1.45;;;1.35;;
22935;SDS011;11633;42.716;23.312;2022-07-22T12:57:51;1.70;;;1.58;;
22935;SDS011;11633;42.716;23.312;2022-07-22T13:00:21;2.60;;;1.92;;
22935;SDS011;11633;42.716;23.312;2022-07-22T13:02:46;2.10;;;1.90;;
22935;SDS011;11633;42.716;23.312;2022-07-22T13:05:12;1.95;;;1.83;;
22935;SDS011;11633;42.716;23.312;2022-07-22T13:07:37;2.10;;;2.00;;
22935;SDS011;11633;42.716;23.312;2022-07-22T13:12:49;1.83;;;1.58;;
22935;SDS011;11633;42.716;23.312;2022-07-22T13:15:14;2.05;;;1.85;;
22935;SDS011;11633;42.716;23.312;2022-07-22T13:17:40;2.53;;;1.45;;
22935;SDS011;11633;42.716;23.312;2022-07-22T13:20:06;2.53;;;2.13;;
22935;SDS011;11633;42.716;23.312;2022-07-22T13:22:31;1.80;;;1.70;;
22935;SDS011;11633;42.716;23.312;2022-07-22T13:24:57;2.10;;;1.63;;
22935;SDS011;11633;42.716;23.312;2022-07-22T13:27:22;1.87;;;1.70;;
22935;SDS011;11633;42.716;23.312;2022-07-22T13:29:47;1.73;;;1.63;;
22935;SDS011;11633;42.716;23.312;2022-07-22T13:32:12;2.50;;;1.97;;
22935;SDS011;11633;42.716;23.312;2022-07-22T13:34:38;3.03;;;1.90;;
22935;SDS011;11633;42.716;23.312;2022-07-22T13:37:03;2.05;;;1.70;;
22935;SDS011;11633;42.716;23.312;2022-07-22T13:39:28;2.75;;;1.90;;
22935;SDS011;11633;42.716;23.312;2022-07-22T13:41:53;1.97;;;1.87;;
22935;SDS011;11633;42.716;23.312;2022-07-22T13:44:19;2.17;;;1.87;;
22935;SDS011;11633;42.716;23.312;2022-07-22T13:46:44;1.83;;;1.73;;
22935;SDS011;11633;42.716;23.312;2022-07-22T13:49:10;1.88;;;1.40;;
22935;SDS011;11633;42.716;23.312;2022-07-22T13:51:35;1.42;;;1.20;;
22935;SDS011;11633;42.716;23.312;2022-07-22T13:54:01;2.00;;;1.80;;
22935;SDS011;11633;42.716;23.312;2022-07-22T13:56:26;1.90;;;1.43;;
22935;SDS011;11633;42.716;23.312;2022-07-22T13:58:51;1.83;;;1.73;;
22935;SDS011;11633;42.716;23.312;2022-07-22T14:01:16;1.85;;;1.75;;
22935;SDS011;11633;42.716;23.312;2022-07-22T14:03:42;1.88;;;1.75;;
22935;SDS011;11633;42.716;23.312;2022-07-22T14:06:07;1.70;;;1.60;;
22935;SDS011;11633;42.716;23.312;2022-07-22T14:08:36;3.35;;;1.63;;
22935;SDS011;11633;42.716;23.312;2022-07-22T14:11:01;1.58;;;1.48;;
22935;SDS011;11633;42.716;23.312;2022-07-22T14:13:27;1.58;;;1.33;;
22935;SDS011;11633;42.716;23.312;2022-07-22T14:15:52;1.60;;;1.50;;
22935;SDS011;11633;42.716;23.312;2022-07-22T14:18:19;1.50;;;1.40;;
22935;SDS011;11633;42.716;23.312;2022-07-22T14:20:45;1.90;;;1.80;;
22935;SDS011;11633;42.716;23.312;2022-07-22T14:23:10;1.85;;;1.75;;
22935;SDS011;11633;42.716;23.312;2022-07-22T14:25:36;2.75;;;1.50;;
22935;SDS011;11633;42.716;23.312;2022-07-22T14:28:02;1.42;;;1.33;;
22935;SDS011;11633;42.716;23.312;2022-07-22T14:30:27;1.67;;;1.58;;
22935;SDS011;11633;42.716;23.312;2022-07-22T14:32:54;2.15;;;1.63;;
22935;SDS011;11633;42.716;23.312;2022-07-22T14:35:19;2.30;;;1.77;;
22935;SDS011;11633;42.716;23.312;2022-07-22T14:37:45;1.77;;;1.67;;
22935;SDS011;11633;42.716;23.312;2022-07-22T14:40:10;1.52;;;1.42;;
22935;SDS011;11633;42.716;23.312;2022-07-22T14:42:35;1.60;;;1.50;;
22935;SDS011;11633;42.716;23.312;2022-07-22T14:45:01;2.17;;;1.53;;
22935;SDS011;11633;42.716;23.312;2022-07-22T14:47:26;2.05;;;1.80;;